Time;durP1;ratioP1;P1;durP2;ratioP2;P2;SDS_P1;SDS_P2;PMS_P1;PMS_P2;Temp;Humidity;BMP_temperature;BMP_pressure;BME280_temperature;BME280_humidity;BME280_pressure;Samples;Min_cycle;Max_cycle;Signal;HPM_P1;HPM_P2
2022/03/12 00:02:29;;;;;;;;;;;;;;;;;;4221482;28;1773;-59
2022/03/12 00:04:50;;;;;;;;;;;;;;;;;;4206139;28;821;-59
2022/03/12 00:07:12;;;;;;;;;;;;;;;;;;4221006;28;986;-60
2022/03/12 00:09:34;;;;;;;;;;;;;;;;;;4220116;28;879;-59
2022/03/12 00:12:00;;;;;;;;;;;;;;;;;;4205793;28;996;-59
2022/03/12 00:14:23;;;;;;;;;;;;;;;;;;4221278;28;932;-59
2022/03/12 00:16:44;;;;;;;;;;;;;;;;;;4221455;28;1077;-59
2022/03/12 00:19:08;;;;;;;;;;;;;;;;;;4221363;28;827;-60
2022/03/12 00:21:30;;;;;;;;;;;;;;;;;;4205959;28;963;-59
2022/03/12 00:23:50;;;;;;;;;;;;;;;;;;4205294;28;977;-60
2022/03/12 00:26:16;;;;;;;;;;;;;;;;;;4220755;28;954;-59
2022/03/12 00:28:37;;;;;;;;;;;;;;;;;;4221428;28;1909;-59
2022/03/12 00:30:58;;;;;;;;;;;;;;;;;;4219756;28;1067;-59
2022/03/12 00:33:19;;;;;;;;;;;;;;;;;;4221018;28;1037;-60
2022/03/12 00:35:40;;;;;;;;;;;;;;;;;;4221039;28;945;-59
2022/03/12 00:38:02;;;;;;;;;;;;;;;;;;4219788;28;876;-60
2022/03/12 00:40:23;;;;;;;;;;;;;;;;;;4220434;28;1209;-60
2022/03/12 00:42:43;;;;;;;;;;;;;;;;;;4205022;28;977;-59
2022/03/12 00:45:04;;;;;;;;;;;;;;;;;;4219788;28;1221;-59
2022/03/12 00:47:26;;;;;;;;;;;;;;;;;;4220986;28;776;-59
2022/03/12 00:49:49;;;;;;;;;;;;;;;;;;4219967;28;870;-59
2022/03/12 00:52:10;;;;;;;;;;;;;;;;;;4220363;28;990;-60
2022/03/12 00:54:31;;;;;;;;;;;;;;;;;;4205110;28;1011;-60
2022/03/12 00:56:51;;;;;;;;;;;;;;;;;;4221110;28;845;-59
2022/03/12 00:59:12;;;;;;;;;;;;;;;;;;4204854;28;1109;-59
2022/03/12 01:01:33;;;;;;;;;;;;;;;;;;4220958;28;1006;-59
2022/03/12 01:03:54;;;;;;;;;;;;;;;;;;4205729;28;898;-60
2022/03/12 01:06:14;;;;;;;;;;;;;;;;;;4220962;28;955;-61
2022/03/12 01:08:35;;;;;;;;;;;;;;;;;;4220869;28;1910;-59
2022/03/12 01:10:56;;;;;;;;;;;;;;;;;;4205617;28;1001;-59
2022/03/12 01:13:16;;;;;;;;;;;;;;;;;;4220951;28;893;-59
2022/03/12 01:15:37;;;;;;;;;;;;;;;;;;4205647;28;805;-59
2022/03/12 01:17:58;;;;;;;;;;;;;;;;;;4220994;28;933;-59
2022/03/12 01:20:18;;;;;;;;;;;;;;;;;;4205395;28;882;-60
2022/03/12 01:22:39;;;;;;;;;;;;;;;;;;4205403;28;771;-60
2022/03/12 01:25:00;;;;;;;;;;;;;;;;;;4220253;28;1147;-61
2022/03/12 01:27:20;;;;;;;;;;;;;;;;;;4205124;28;947;-59
2022/03/12 01:29:41;;;;;;;;;;;;;;;;;;4204966;28;1909;-60
2022/03/12 01:32:01;;;;;;;;;;;;;;;;;;4219681;28;1120;-59
2022/03/12 01:34:22;;;;;;;;;;;;;;;;;;4220165;28;857;-60
2022/03/12 01:36:42;;;;;;;;;;;;;;;;;;4219931;28;1007;-59
2022/03/12 01:39:03;;;;;;;;;;;;;;;;;;4204873;28;850;-59
2022/03/12 01:41:24;;;;;;;;;;;;;;;;;;4220039;28;1388;-59
2022/03/12 01:43:46;;;;;;;;;;;;;;;;;;4219205;28;1136;-59
2022/03/12 01:46:09;;;;;;;;;;;;;;;;;;4219404;28;1092;-59
2022/03/12 01:48:30;;;;;;;;;;;;;;;;;;4219063;28;1909;-59
2022/03/12 01:50:51;;;;;;;;;;;;;;;;;;4205866;28;874;-59
2022/03/12 01:53:11;;;;;;;;;;;;;;;;;;4221965;28;954;-59
2022/03/12 01:55:32;;;;;;;;;;;;;;;;;;4220513;28;835;-60
2022/03/12 01:57:52;;;;;;;;;;;;;;;;;;4219637;28;894;-59
2022/03/12 02:04:02;;;;;;;;;;;;;;;;;;4202312;28;889;-60
2022/03/12 02:06:22;;;;;;;;;;;;;;;;;;4187544;28;1140;-59
2022/03/12 02:08:43;;;;;;;;;;;;;;;;;;4190308;28;1901;-59
2022/03/12 02:11:05;;;;;;;;;;;;;;;;;;4176698;28;1428;-60
2022/03/12 02:13:26;;;;;;;;;;;;;;;;;;4204719;28;969;-60
2022/03/12 02:15:46;;;;;;;;;;;;;;;;;;4191028;28;1191;-58
2022/03/12 02:18:07;;;;;;;;;;;;;;;;;;4205678;28;951;-59
2022/03/12 02:20:30;;;;;;;;;;;;;;;;;;4219519;28;1810;-60
2022/03/12 02:22:52;;;;;;;;;;;;;;;;;;4221814;28;1699;-60
2022/03/12 02:25:13;;;;;;;;;;;;;;;;;;4203903;28;1884;-61
2022/03/12 02:27:34;;;;;;;;;;;;;;;;;;4218147;28;1431;-60
2022/03/12 02:30:08;;;;;;;;;;;;;;;;;;4216581;28;1982;-59
2022/03/12 02:32:38;;;;;;;;;;;;;;;;;;4203964;28;1587;-59
2022/03/12 02:35:00;;;;;;;;;;;;;;;;;;4217044;28;1856;-60
2022/03/12 02:37:28;;;;;;;;;;;;;;;;;;4216763;28;1309;-60
2022/03/12 02:39:48;;;;;;;;;;;;;;;;;;4210861;28;1713;-59
2022/03/12 02:42:09;;;;;;;;;;;;;;;;;;4204368;28;1688;-59
2022/03/12 02:44:30;;;;;;;;;;;;;;;;;;4219347;28;1466;-59
2022/03/12 02:46:51;;;;;;;;;;;;;;;;;;4219208;28;1875;-59
2022/03/12 02:49:12;;;;;;;;;;;;;;;;;;4204352;28;1987;-60
2022/03/12 02:51:33;;;;;;;;;;;;;;;;;;4215654;28;1366;-60
2022/03/12 02:53:56;;;;;;;;;;;;;;;;;;4203736;28;1321;-59
2022/03/12 02:56:17;;;;;;;;;;;;;;;;;;4203380;28;962;-59
2022/03/12 02:58:37;;;;;;;;;;;;;;;;;;4204403;28;941;-59
2022/03/12 03:00:58;;;;;;;;;;;;;;;;;;4205609;28;921;-61
2022/03/12 03:03:19;;;;;;;;;;;;;;;;;;4204202;28;952;-60
2022/03/12 03:05:44;;;;;;;;;;;;;;;;;;4205486;28;926;-60
2022/03/12 03:08:05;;;;;;;;;;;;;;;;;;4204413;28;958;-59
2022/03/12 03:10:30;;;;;;;;;;;;;;;;;;4205408;28;1901;-59
2022/03/12 03:12:51;;;;;;;;;;;;;;;;;;4190076;28;1040;-59
2022/03/12 03:15:14;;;;;;;;;;;;;;;;;;4205667;28;910;-59
2022/03/12 03:17:35;;;;;;;;;;;;;;;;;;4189629;28;856;-59
2022/03/12 03:19:56;;;;;;;;;;;;;;;;;;4205014;28;1113;-59
2022/03/12 03:22:17;;;;;;;;;;;;;;;;;;4205246;28;1053;-59
2022/03/12 03:24:38;;;;;;;;;;;;;;;;;;4204883;28;938;-60
2022/03/12 03:26:59;;;;;;;;;;;;;;;;;;4218172;28;1039;-61
2022/03/12 03:29:21;;;;;;;;;;;;;;;;;;4204977;28;1954;-59
2022/03/12 03:31:42;;;;;;;;;;;;;;;;;;4204748;28;1108;-59
2022/03/12 03:34:03;;;;;;;;;;;;;;;;;;4203643;28;957;-60
2022/03/12 03:36:24;;;;;;;;;;;;;;;;;;4204652;28;816;-59
2022/03/12 03:38:44;;;;;;;;;;;;;;;;;;4218009;28;978;-60
2022/03/12 03:41:05;;;;;;;;;;;;;;;;;;4203862;28;1322;-61
2022/03/12 03:43:26;;;;;;;;;;;;;;;;;;4204223;28;1319;-59
2022/03/12 03:45:46;;;;;;;;;;;;;;;;;;4218190;28;1077;-60
2022/03/12 03:48:08;;;;;;;;;;;;;;;;;;4204988;28;1046;-62
2022/03/12 03:50:29;;;;;;;;;;;;;;;;;;4203895;28;1906;-59
2022/03/12 03:52:50;;;;;;;;;;;;;;;;;;4203879;28;980;-60
2022/03/12 03:55:11;;;;;;;;;;;;;;;;;;4204542;28;935;-59
2022/03/12 03:57:32;;;;;;;;;;;;;;;;;;4203192;28;803;-59
2022/03/12 03:59:52;;;;;;;;;;;;;;;;;;4217833;28;980;-59
2022/03/12 04:02:13;;;;;;;;;;;;;;;;;;4205100;28;937;-59
2022/03/12 04:04:38;;;;;;;;;;;;;;;;;;4204965;28;958;-59
2022/03/12 04:07:00;;;;;;;;;;;;;;;;;;4203530;28;940;-59
2022/03/12 04:09:20;;;;;;;;;;;;;;;;;;4195992;28;1988;-60
2022/03/12 04:11:43;;;;;;;;;;;;;;;;;;4204862;28;993;-59
2022/03/12 04:14:04;;;;;;;;;;;;;;;;;;4204766;28;995;-60
2022/03/12 04:16:25;;;;;;;;;;;;;;;;;;4204693;28;927;-60
2022/03/12 04:18:46;;;;;;;;;;;;;;;;;;4203530;28;1036;-59
2022/03/12 04:21:07;;;;;;;;;;;;;;;;;;4189671;28;909;-59
2022/03/12 04:23:28;;;;;;;;;;;;;;;;;;4189434;28;976;-59
2022/03/12 04:25:48;;;;;;;;;;;;;;;;;;4203736;28;794;-59
2022/03/12 04:28:09;;;;;;;;;;;;;;;;;;4204845;28;989;-59
2022/03/12 04:30:29;;;;;;;;;;;;;;;;;;4188767;28;1980;-59
2022/03/12 04:32:50;;;;;;;;;;;;;;;;;;4204335;28;909;-59
2022/03/12 04:35:11;;;;;;;;;;;;;;;;;;4189268;28;933;-59
2022/03/12 04:37:32;;;;;;;;;;;;;;;;;;4204337;28;935;-59
2022/03/12 04:39:52;;;;;;;;;;;;;;;;;;4204604;28;841;-59
2022/03/12 04:42:13;;;;;;;;;;;;;;;;;;4203400;28;965;-60
2022/03/12 04:44:34;;;;;;;;;;;;;;;;;;4204397;28;1331;-59
2022/03/12 04:46:54;;;;;;;;;;;;;;;;;;4203246;28;1047;-59
2022/03/12 04:49:15;;;;;;;;;;;;;;;;;;4204281;28;1026;-59
2022/03/12 04:51:36;;;;;;;;;;;;;;;;;;4204368;28;1018;-60
2022/03/12 04:53:57;;;;;;;;;;;;;;;;;;4202949;28;1121;-59
2022/03/12 04:56:18;;;;;;;;;;;;;;;;;;4188768;28;898;-60
2022/03/12 04:58:39;;;;;;;;;;;;;;;;;;4188908;28;987;-59
2022/03/12 05:01:00;;;;;;;;;;;;;;;;;;4188435;28;1255;-59
2022/03/12 05:03:21;;;;;;;;;;;;;;;;;;4192797;28;1149;-59
2022/03/12 05:05:42;;;;;;;;;;;;;;;;;;4205473;28;894;-59
2022/03/12 05:08:03;;;;;;;;;;;;;;;;;;4219965;28;1171;-59
2022/03/12 05:10:27;;;;;;;;;;;;;;;;;;4205700;28;2072;-60
2022/03/12 05:12:48;;;;;;;;;;;;;;;;;;4220791;28;833;-59
2022/03/12 05:15:14;;;;;;;;;;;;;;;;;;4220634;28;1009;-59
2022/03/12 05:17:34;;;;;;;;;;;;;;;;;;4219498;28;937;-59
2022/03/12 05:19:54;;;;;;;;;;;;;;;;;;4219546;28;984;-59
2022/03/12 05:22:15;;;;;;;;;;;;;;;;;;4220391;28;825;-59
2022/03/12 05:24:36;;;;;;;;;;;;;;;;;;4218270;28;1770;-59
2022/03/12 05:26:58;;;;;;;;;;;;;;;;;;4220459;28;1206;-59
2022/03/12 05:29:22;;;;;;;;;;;;;;;;;;4220138;28;900;-58
2022/03/12 05:31:43;;;;;;;;;;;;;;;;;;4220144;28;913;-59
2022/03/12 05:34:05;;;;;;;;;;;;;;;;;;4220374;28;806;-59
2022/03/12 05:36:25;;;;;;;;;;;;;;;;;;4190766;28;874;-59
2022/03/12 05:38:46;;;;;;;;;;;;;;;;;;4205493;28;819;-59
2022/03/12 05:41:10;;;;;;;;;;;;;;;;;;4221514;28;1161;-60
2022/03/12 05:43:31;;;;;;;;;;;;;;;;;;4223297;28;1212;-60
2022/03/12 05:45:52;;;;;;;;;;;;;;;;;;4208318;28;821;-59
2022/03/12 05:48:14;;;;;;;;;;;;;;;;;;4223523;28;1158;-59
2022/03/12 05:50:34;;;;;;;;;;;;;;;;;;4223398;28;1905;-60
2022/03/12 05:52:55;;;;;;;;;;;;;;;;;;4208075;28;976;-59
2022/03/12 05:55:15;;;;;;;;;;;;;;;;;;4207909;28;997;-59
2022/03/12 05:57:36;;;;;;;;;;;;;;;;;;4208069;28;1014;-59
2022/03/12 05:59:57;;;;;;;;;;;;;;;;;;4211232;28;1081;-59
2022/03/12 06:02:18;;;;;;;;;;;;;;;;;;4206211;28;1005;-60
2022/03/12 06:04:40;;;;;;;;;;;;;;;;;;4220112;28;998;-59
2022/03/12 06:07:01;;;;;;;;;;;;;;;;;;4206360;28;1041;-59
2022/03/12 06:09:21;;;;;;;;;;;;;;;;;;4206515;28;1010;-59
2022/03/12 06:11:42;;;;;;;;;;;;;;;;;;4206379;28;1909;-59
2022/03/12 06:14:03;;;;;;;;;;;;;;;;;;4205295;28;1015;-59
2022/03/12 06:16:24;;;;;;;;;;;;;;;;;;4206281;28;821;-59
2022/03/12 06:18:44;;;;;;;;;;;;;;;;;;4205301;28;864;-59
2022/03/12 06:21:05;;;;;;;;;;;;;;;;;;4206275;28;1025;-59
2022/03/12 06:23:26;;;;;;;;;;;;;;;;;;4206284;28;1115;-59
2022/03/12 06:25:47;;;;;;;;;;;;;;;;;;4219303;28;944;-59
2022/03/12 06:28:08;;;;;;;;;;;;;;;;;;4205109;28;844;-59
2022/03/12 06:30:29;;;;;;;;;;;;;;;;;;4205589;28;1906;-59
2022/03/12 06:32:49;;;;;;;;;;;;;;;;;;4205970;28;792;-59
2022/03/12 06:35:10;;;;;;;;;;;;;;;;;;4205788;28;938;-59
2022/03/12 06:37:31;;;;;;;;;;;;;;;;;;4205934;28;957;-59
2022/03/12 06:39:51;;;;;;;;;;;;;;;;;;4204860;28;986;-59
2022/03/12 06:42:12;;;;;;;;;;;;;;;;;;4205698;28;933;-60
2022/03/12 06:44:33;;;;;;;;;;;;;;;;;;4218567;28;1008;-59
2022/03/12 06:46:53;;;;;;;;;;;;;;;;;;4218566;28;923;-59
2022/03/12 06:49:14;;;;;;;;;;;;;;;;;;4205387;28;954;-60
2022/03/12 06:51:35;;;;;;;;;;;;;;;;;;4204931;28;1906;-59
2022/03/12 06:53:55;;;;;;;;;;;;;;;;;;4205008;28;996;-60
2022/03/12 06:56:19;;;;;;;;;;;;;;;;;;4205218;28;1143;-59
2022/03/12 06:58:39;;;;;;;;;;;;;;;;;;4204289;28;837;-59
2022/03/12 07:01:00;;;;;;;;;;;;;;;;;;4205344;28;1009;-60
2022/03/12 07:03:21;;;;;;;;;;;;;;;;;;4204508;28;950;-61
2022/03/12 07:05:42;;;;;;;;;;;;;;;;;;4205524;28;1023;-59
2022/03/12 07:08:03;;;;;;;;;;;;;;;;;;4205120;28;838;-60
2022/03/12 07:10:23;;;;;;;;;;;;;;;;;;4205279;28;1921;-59
2022/03/12 07:12:44;;;;;;;;;;;;;;;;;;4205307;28;1002;-59
2022/03/12 07:15:06;;;;;;;;;;;;;;;;;;4204710;28;881;-59
2022/03/12 07:17:26;;;;;;;;;;;;;;;;;;4205198;28;1057;-59
2022/03/12 07:19:48;;;;;;;;;;;;;;;;;;4204431;28;1058;-59
2022/03/12 07:22:08;;;;;;;;;;;;;;;;;;4205149;28;1207;-59
2022/03/12 07:24:29;;;;;;;;;;;;;;;;;;4205868;28;917;-59
2022/03/12 07:26:50;;;;;;;;;;;;;;;;;;4205135;28;1006;-60
2022/03/12 07:29:10;;;;;;;;;;;;;;;;;;4205239;28;999;-60
2022/03/12 07:31:31;;;;;;;;;;;;;;;;;;4218012;28;1914;-59
2022/03/12 07:33:52;;;;;;;;;;;;;;;;;;4205155;28;997;-59
2022/03/12 07:36:13;;;;;;;;;;;;;;;;;;4203823;28;990;-59
2022/03/12 07:38:33;;;;;;;;;;;;;;;;;;4204103;28;916;-59
2022/03/12 07:40:54;;;;;;;;;;;;;;;;;;4204600;28;820;-59
2022/03/12 07:43:15;;;;;;;;;;;;;;;;;;4204803;28;933;-59
2022/03/12 07:45:36;;;;;;;;;;;;;;;;;;4218457;28;1136;-59
2022/03/12 07:47:56;;;;;;;;;;;;;;;;;;4204635;28;1065;-59
2022/03/12 07:50:17;;;;;;;;;;;;;;;;;;4205139;28;874;-59
2022/03/12 07:52:38;;;;;;;;;;;;;;;;;;4203951;28;996;-59
2022/03/12 07:54:59;;;;;;;;;;;;;;;;;;4203825;28;882;-59
2022/03/12 07:57:19;;;;;;;;;;;;;;;;;;4204666;28;880;-59
2022/03/12 07:59:40;;;;;;;;;;;;;;;;;;4204859;28;1098;-59
2022/03/12 08:02:01;;;;;;;;;;;;;;;;;;4218770;28;844;-61
2022/03/12 08:04:21;;;;;;;;;;;;;;;;;;4216309;28;850;-62
2022/03/12 08:06:43;;;;;;;;;;;;;;;;;;4204705;28;998;-61
2022/03/12 08:09:04;;;;;;;;;;;;;;;;;;4204549;28;1025;-62
2022/03/12 08:11:28;;;;;;;;;;;;;;;;;;4204696;28;1981;-62
2022/03/12 08:13:49;;;;;;;;;;;;;;;;;;4205836;28;1251;-62
2022/03/12 08:16:09;;;;;;;;;;;;;;;;;;4206009;28;1195;-63
2022/03/12 08:18:30;;;;;;;;;;;;;;;;;;4205417;28;854;-63
2022/03/12 08:20:51;;;;;;;;;;;;;;;;;;4216096;28;1281;-63
2022/03/12 08:23:12;;;;;;;;;;;;;;;;;;4223077;28;897;-64
2022/03/12 08:25:34;;;;;;;;;;;;;;;;;;4223443;28;827;-62
2022/03/12 08:27:55;;;;;;;;;;;;;;;;;;4223105;28;931;-62
2022/03/12 08:30:16;;;;;;;;;;;;;;;;;;4223326;28;1023;-62
2022/03/12 08:32:39;;;;;;;;;;;;;;;;;;4223987;28;1973;-63
2022/03/12 08:35:00;;;;;;;;;;;;;;;;;;4222780;28;973;-64
2022/03/12 08:37:21;;;;;;;;;;;;;;;;;;4223173;28;926;-64
2022/03/12 08:39:41;;;;;;;;;;;;;;;;;;4223036;28;1022;-62
2022/03/12 08:42:02;;;;;;;;;;;;;;;;;;4221729;28;1116;-64
2022/03/12 08:44:23;;;;;;;;;;;;;;;;;;4222196;28;1067;-63
2022/03/12 08:46:45;;;;;;;;;;;;;;;;;;4221349;28;999;-63
2022/03/12 08:49:08;;;;;;;;;;;;;;;;;;4222811;28;860;-63
2022/03/12 08:51:29;;;;;;;;;;;;;;;;;;4221363;28;1922;-63
2022/03/12 08:53:49;;;;;;;;;;;;;;;;;;4218176;28;1198;-63
2022/03/12 08:56:10;;;;;;;;;;;;;;;;;;4210210;28;1233;-62
2022/03/12 08:58:31;;;;;;;;;;;;;;;;;;4222473;28;813;-63
2022/03/12 09:00:53;;;;;;;;;;;;;;;;;;4221186;28;881;-61
2022/03/12 09:03:14;;;;;;;;;;;;;;;;;;4219282;28;1050;-63
2022/03/12 09:05:35;;;;;;;;;;;;;;;;;;4219633;28;1236;-61
2022/03/12 09:07:57;;;;;;;;;;;;;;;;;;4219324;28;944;-60
2022/03/12 09:10:18;;;;;;;;;;;;;;;;;;4219829;28;934;-61
2022/03/12 09:12:39;;;;;;;;;;;;;;;;;;4220319;28;1909;-61
2022/03/12 09:14:59;;;;;;;;;;;;;;;;;;4220130;28;1006;-60
2022/03/12 09:17:21;;;;;;;;;;;;;;;;;;4222415;28;999;-62
2022/03/12 09:19:42;;;;;;;;;;;;;;;;;;4221638;28;886;-63
2022/03/12 09:22:02;;;;;;;;;;;;;;;;;;4221696;28;999;-61
2022/03/12 09:24:23;;;;;;;;;;;;;;;;;;4221911;28;928;-62
2022/03/12 09:26:44;;;;;;;;;;;;;;;;;;4221159;28;951;-63
2022/03/12 09:29:04;;;;;;;;;;;;;;;;;;4218852;28;830;-62
2022/03/12 09:31:25;;;;;;;;;;;;;;;;;;4218611;28;1993;-61
2022/03/12 09:33:46;;;;;;;;;;;;;;;;;;4218476;28;905;-62
2022/03/12 09:36:09;;;;;;;;;;;;;;;;;;4218348;28;957;-62
2022/03/12 09:38:29;;;;;;;;;;;;;;;;;;4218152;28;1110;-62
2022/03/12 09:40:50;;;;;;;;;;;;;;;;;;4217195;28;1256;-62
2022/03/12 09:43:11;;;;;;;;;;;;;;;;;;4202990;28;791;-62
2022/03/12 09:45:31;;;;;;;;;;;;;;;;;;4218917;28;970;-62
2022/03/12 09:47:52;;;;;;;;;;;;;;;;;;4218548;28;992;-62
2022/03/12 09:50:12;;;;;;;;;;;;;;;;;;4218835;28;931;-63
2022/03/12 09:52:33;;;;;;;;;;;;;;;;;;4218390;28;1988;-62
2022/03/12 09:54:53;;;;;;;;;;;;;;;;;;4185749;28;1108;-62
2022/03/12 09:57:14;;;;;;;;;;;;;;;;;;4203622;28;1074;-63
2022/03/12 09:59:35;;;;;;;;;;;;;;;;;;4218521;28;1227;-63
2022/03/12 10:01:56;;;;;;;;;;;;;;;;;;4218391;28;974;-64
2022/03/12 10:04:16;;;;;;;;;;;;;;;;;;4218610;28;1309;-64
2022/03/12 10:06:37;;;;;;;;;;;;;;;;;;4218622;28;944;-63
2022/03/12 10:09:03;;;;;;;;;;;;;;;;;;4218052;28;940;-62
2022/03/12 10:11:23;;;;;;;;;;;;;;;;;;4218786;28;1981;-62
2022/03/12 10:13:44;;;;;;;;;;;;;;;;;;4218752;28;812;-62
2022/03/12 10:16:09;;;;;;;;;;;;;;;;;;4218226;28;900;-63
2022/03/12 10:18:30;;;;;;;;;;;;;;;;;;4218368;28;990;-63
2022/03/12 10:20:50;;;;;;;;;;;;;;;;;;4203107;28;1012;-64
2022/03/12 10:23:11;;;;;;;;;;;;;;;;;;4218415;28;1014;-62
2022/03/12 10:25:33;;;;;;;;;;;;;;;;;;4218947;28;965;-63
2022/03/12 10:27:53;;;;;;;;;;;;;;;;;;4219785;28;812;-68
2022/03/12 10:30:19;;;;;;;;;;;;;;;;;;4221590;28;885;-70
2022/03/12 10:33:00;;;;;;;;;;;;;;;;;;4221530;28;1901;-67
2022/03/12 10:35:59;;;;;;;;;;;;;;;;;;4221862;28;862;-68
2022/03/12 10:38:22;;;;;;;;;;;;;;;;;;4222566;28;951;-66
2022/03/12 10:40:42;;;;;;;;;;;;;;;;;;4222556;28;957;-70
2022/03/12 10:43:05;;;;;;;;;;;;;;;;;;4222220;28;903;-71
2022/03/12 10:45:25;;;;;;;;;;;;;;;;;;4222577;28;875;-68
2022/03/12 10:47:47;;;;;;;;;;;;;;;;;;4222461;28;1139;-68
2022/03/12 10:50:07;;;;;;;;;;;;;;;;;;4221953;28;926;-68
2022/03/12 10:52:28;;;;;;;;;;;;;;;;;;4221740;28;1882;-68
2022/03/12 10:54:49;;;;;;;;;;;;;;;;;;4222257;28;892;-68
2022/03/12 10:57:11;;;;;;;;;;;;;;;;;;4221741;28;1021;-69
2022/03/12 10:59:32;;;;;;;;;;;;;;;;;;4221800;28;1160;-69
2022/03/12 11:01:53;;;;;;;;;;;;;;;;;;4203439;28;957;-68
2022/03/12 11:04:13;;;;;;;;;;;;;;;;;;4221270;28;1240;-70
2022/03/12 11:06:34;;;;;;;;;;;;;;;;;;4221724;28;849;-70
2022/03/12 11:08:55;;;;;;;;;;;;;;;;;;4221455;28;1056;-70
2022/03/12 11:11:16;;;;;;;;;;;;;;;;;;4221917;28;830;-70
2022/03/12 11:13:40;;;;;;;;;;;;;;;;;;4221953;28;1917;-69
2022/03/12 11:16:00;;;;;;;;;;;;;;;;;;4206736;28;947;-69
2022/03/12 11:18:21;;;;;;;;;;;;;;;;;;4221908;28;922;-67
2022/03/12 11:20:42;;;;;;;;;;;;;;;;;;4221518;28;961;-68
2022/03/12 11:23:02;;;;;;;;;;;;;;;;;;4221668;28;974;-68
2022/03/12 11:25:23;;;;;;;;;;;;;;;;;;4221649;28;821;-66
2022/03/12 11:27:49;;;;;;;;;;;;;;;;;;4221172;28;834;-65
2022/03/12 11:30:10;;;;;;;;;;;;;;;;;;4205355;28;1065;-65
2022/03/12 11:32:36;;;;;;;;;;;;;;;;;;4204420;28;1914;-66
2022/03/12 11:34:58;;;;;;;;;;;;;;;;;;4204219;28;961;-65
2022/03/12 11:37:19;;;;;;;;;;;;;;;;;;4204843;28;1002;-67
2022/03/12 11:39:40;;;;;;;;;;;;;;;;;;4204340;28;1016;-67
2022/03/12 11:42:01;;;;;;;;;;;;;;;;;;4203631;28;1403;-67
2022/03/12 11:44:22;;;;;;;;;;;;;;;;;;4204634;28;1292;-67
2022/03/12 11:46:43;;;;;;;;;;;;;;;;;;4204501;28;921;-67
2022/03/12 11:49:05;;;;;;;;;;;;;;;;;;4204179;28;933;-67
2022/03/12 11:51:26;;;;;;;;;;;;;;;;;;4204657;28;850;-67
2022/03/12 11:53:47;;;;;;;;;;;;;;;;;;4204447;28;1909;-68
2022/03/12 11:56:07;;;;;;;;;;;;;;;;;;4204440;28;1008;-67
2022/03/12 11:58:28;;;;;;;;;;;;;;;;;;4204312;28;929;-68
2022/03/12 12:00:49;;;;;;;;;;;;;;;;;;4204116;28;947;-67
2022/03/12 12:03:10;;;;;;;;;;;;;;;;;;4202983;28;949;-66
2022/03/12 12:05:31;;;;;;;;;;;;;;;;;;4203875;28;968;-68
2022/03/12 12:07:52;;;;;;;;;;;;;;;;;;4204120;28;978;-67
2022/03/12 12:10:14;;;;;;;;;;;;;;;;;;4204305;28;941;-66
2022/03/12 12:12:35;;;;;;;;;;;;;;;;;;4216648;28;1985;-68
2022/03/12 12:14:57;;;;;;;;;;;;;;;;;;4203831;28;932;-67
2022/03/12 12:17:18;;;;;;;;;;;;;;;;;;4203766;28;987;-67
2022/03/12 12:19:39;;;;;;;;;;;;;;;;;;4203384;28;897;-66
2022/03/12 12:22:00;;;;;;;;;;;;;;;;;;4204791;28;806;-65
2022/03/12 12:24:20;;;;;;;;;;;;;;;;;;4216921;28;1142;-66
2022/03/12 12:26:41;;;;;;;;;;;;;;;;;;4221262;28;956;-70
2022/03/12 12:29:02;;;;;;;;;;;;;;;;;;4220989;28;959;-66
2022/03/12 12:31:23;;;;;;;;;;;;;;;;;;4221061;28;960;-67
2022/03/12 12:33:43;;;;;;;;;;;;;;;;;;4220827;28;1905;-65
2022/03/12 12:36:04;;;;;;;;;;;;;;;;;;4220529;28;855;-66
2022/03/12 12:38:24;;;;;;;;;;;;;;;;;;4204819;28;884;-67
2022/03/12 12:40:46;;;;;;;;;;;;;;;;;;4220821;28;940;-67
2022/03/12 12:43:09;;;;;;;;;;;;;;;;;;4219931;28;941;-66
2022/03/12 12:45:31;;;;;;;;;;;;;;;;;;4219392;28;1178;-66
2022/03/12 12:47:53;;;;;;;;;;;;;;;;;;4220155;28;958;-65
2022/03/12 12:50:22;;;;;;;;;;;;;;;;;;4205197;28;1373;-66
2022/03/12 12:52:44;;;;;;;;;;;;;;;;;;4219258;28;1910;-66
2022/03/12 12:55:04;;;;;;;;;;;;;;;;;;4220241;28;1103;-65
2022/03/12 12:57:26;;;;;;;;;;;;;;;;;;4218692;28;886;-66
2022/03/12 12:59:48;;;;;;;;;;;;;;;;;;4220158;28;1011;-66
2022/03/12 13:02:09;;;;;;;;;;;;;;;;;;4219801;28;1407;-66
2022/03/12 13:04:30;;;;;;;;;;;;;;;;;;4204500;28;1229;-63
2022/03/12 13:06:52;;;;;;;;;;;;;;;;;;4220058;28;892;-64
2022/03/12 13:09:14;;;;;;;;;;;;;;;;;;4219048;28;970;-63
2022/03/12 13:11:34;;;;;;;;;;;;;;;;;;4201725;28;1202;-65
2022/03/12 13:13:57;;;;;;;;;;;;;;;;;;4201839;28;1988;-65
2022/03/12 13:16:18;;;;;;;;;;;;;;;;;;4186784;28;1026;-63
2022/03/12 13:18:40;;;;;;;;;;;;;;;;;;4201921;28;1174;-63
2022/03/12 13:21:00;;;;;;;;;;;;;;;;;;4201767;28;1162;-63
2022/03/12 13:23:22;;;;;;;;;;;;;;;;;;4202073;28;798;-61
2022/03/12 13:25:42;;;;;;;;;;;;;;;;;;4202054;28;1136;-61
2022/03/12 13:28:03;;;;;;;;;;;;;;;;;;4201836;28;868;-58
2022/03/12 13:30:25;;;;;;;;;;;;;;;;;;4202778;28;963;-59
2022/03/12 13:32:47;;;;;;;;;;;;;;;;;;4203125;28;1979;-60
2022/03/12 13:35:08;;;;;;;;;;;;;;;;;;4203186;28;947;-60
2022/03/12 13:37:28;;;;;;;;;;;;;;;;;;4203027;28;931;-60
2022/03/12 13:39:49;;;;;;;;;;;;;;;;;;4203156;28;863;-60
2022/03/12 13:42:12;;;;;;;;;;;;;;;;;;4200995;28;1027;-60
2022/03/12 13:44:33;;;;;;;;;;;;;;;;;;4202855;28;1326;-60
2022/03/12 13:46:54;;;;;;;;;;;;;;;;;;4202042;28;934;-60
2022/03/12 13:49:14;;;;;;;;;;;;;;;;;;4216130;28;893;-60
2022/03/12 13:51:35;;;;;;;;;;;;;;;;;;4216388;28;829;-61
2022/03/12 13:53:56;;;;;;;;;;;;;;;;;;4202889;28;1979;-59
2022/03/12 13:56:17;;;;;;;;;;;;;;;;;;4201516;28;888;-59
2022/03/12 13:58:37;;;;;;;;;;;;;;;;;;4202233;28;1182;-59
2022/03/12 14:00:59;;;;;;;;;;;;;;;;;;4202567;28;1021;-60
2022/03/12 14:03:22;;;;;;;;;;;;;;;;;;4205323;28;946;-60
2022/03/12 14:05:43;;;;;;;;;;;;;;;;;;4204792;28;965;-60
2022/03/12 14:08:04;;;;;;;;;;;;;;;;;;4206711;28;971;-59
2022/03/12 14:10:24;;;;;;;;;;;;;;;;;;4204760;28;977;-59
2022/03/12 14:12:47;;;;;;;;;;;;;;;;;;4204920;28;865;-58
2022/03/12 14:15:11;;;;;;;;;;;;;;;;;;4205532;28;1046;-59
2022/03/12 14:17:32;;;;;;;;;;;;;;;;;;4205589;28;923;-59
2022/03/12 14:19:52;;;;;;;;;;;;;;;;;;4205097;28;975;-59
2022/03/12 14:22:13;;;;;;;;;;;;;;;;;;4204800;28;966;-59
2022/03/12 14:24:34;;;;;;;;;;;;;;;;;;4205475;28;1016;-59
2022/03/12 14:26:54;;;;;;;;;;;;;;;;;;4205635;28;987;-59
2022/03/12 14:29:16;;;;;;;;;;;;;;;;;;4205811;28;853;-59
2022/03/12 14:31:37;;;;;;;;;;;;;;;;;;4205931;28;999;-59
2022/03/12 14:33:59;;;;;;;;;;;;;;;;;;4205596;28;1910;-59
2022/03/12 14:36:20;;;;;;;;;;;;;;;;;;4206227;28;992;-59
2022/03/12 14:38:40;;;;;;;;;;;;;;;;;;4205707;28;948;-59
2022/03/12 14:41:01;;;;;;;;;;;;;;;;;;4205706;28;779;-59
2022/03/12 14:43:24;;;;;;;;;;;;;;;;;;4205178;28;1293;-59
2022/03/12 14:45:45;;;;;;;;;;;;;;;;;;4205535;28;989;-59
2022/03/12 14:48:06;;;;;;;;;;;;;;;;;;4204947;28;963;-60
2022/03/12 14:50:27;;;;;;;;;;;;;;;;;;4190267;28;847;-59
2022/03/12 14:52:48;;;;;;;;;;;;;;;;;;4205320;28;765;-58
2022/03/12 14:55:09;;;;;;;;;;;;;;;;;;4205253;28;1914;-60
2022/03/12 14:57:29;;;;;;;;;;;;;;;;;;4205345;28;948;-59
2022/03/12 14:59:50;;;;;;;;;;;;;;;;;;4218412;28;934;-59
2022/03/12 15:02:11;;;;;;;;;;;;;;;;;;4205254;28;1002;-59
2022/03/12 15:04:34;;;;;;;;;;;;;;;;;;4205227;28;869;-59
2022/03/12 15:06:55;;;;;;;;;;;;;;;;;;4205203;28;947;-59
2022/03/12 15:09:15;;;;;;;;;;;;;;;;;;4204502;28;964;-58
2022/03/12 15:11:36;;;;;;;;;;;;;;;;;;4205204;28;897;-59
2022/03/12 15:13:59;;;;;;;;;;;;;;;;;;4204285;28;1910;-59
2022/03/12 15:16:20;;;;;;;;;;;;;;;;;;4204964;28;948;-60
2022/03/12 15:18:42;;;;;;;;;;;;;;;;;;4205197;28;1013;-58
2022/03/12 15:21:03;;;;;;;;;;;;;;;;;;4205759;28;884;-59
2022/03/12 15:23:24;;;;;;;;;;;;;;;;;;4204617;28;1214;-59
2022/03/12 15:25:45;;;;;;;;;;;;;;;;;;4204967;28;990;-58
2022/03/12 15:28:06;;;;;;;;;;;;;;;;;;4205026;28;1011;-59
2022/03/12 15:30:28;;;;;;;;;;;;;;;;;;4204951;28;931;-58
2022/03/12 15:32:48;;;;;;;;;;;;;;;;;;4204895;28;1156;-58
2022/03/12 15:35:10;;;;;;;;;;;;;;;;;;4203694;28;1905;-59
2022/03/12 15:37:32;;;;;;;;;;;;;;;;;;4204761;28;845;-59
2022/03/12 15:39:53;;;;;;;;;;;;;;;;;;4188857;28;1118;-59
2022/03/12 15:42:13;;;;;;;;;;;;;;;;;;4204508;28;875;-58
2022/03/12 15:44:34;;;;;;;;;;;;;;;;;;4204149;28;1088;-59
2022/03/12 15:46:55;;;;;;;;;;;;;;;;;;4204012;28;1140;-58
2022/03/12 15:49:16;;;;;;;;;;;;;;;;;;4204259;28;953;-59
2022/03/12 15:51:39;;;;;;;;;;;;;;;;;;4204218;28;1069;-59
2022/03/12 15:54:01;;;;;;;;;;;;;;;;;;4204040;28;1982;-59
2022/03/12 15:56:22;;;;;;;;;;;;;;;;;;4204376;28;840;-59
2022/03/12 15:58:42;;;;;;;;;;;;;;;;;;4204360;28;925;-58
2022/03/12 16:01:03;;;;;;;;;;;;;;;;;;4204381;28;826;-58
2022/03/12 16:03:23;;;;;;;;;;;;;;;;;;4205062;28;916;-58
2022/03/12 16:05:44;;;;;;;;;;;;;;;;;;4203921;28;1062;-59
2022/03/12 16:08:05;;;;;;;;;;;;;;;;;;4204249;28;1040;-58
2022/03/12 16:10:25;;;;;;;;;;;;;;;;;;4204331;28;959;-58
2022/03/12 16:12:47;;;;;;;;;;;;;;;;;;4204548;28;948;-59
2022/03/12 16:15:09;;;;;;;;;;;;;;;;;;4204304;28;1889;-58
2022/03/12 16:17:32;;;;;;;;;;;;;;;;;;4204098;28;833;-59
2022/03/12 16:19:53;;;;;;;;;;;;;;;;;;4204130;28;888;-59
2022/03/12 16:22:14;;;;;;;;;;;;;;;;;;4203666;28;1017;-58
2022/03/12 16:24:36;;;;;;;;;;;;;;;;;;4203509;28;885;-59
2022/03/12 16:26:57;;;;;;;;;;;;;;;;;;4204100;28;789;-59
2022/03/12 16:29:18;;;;;;;;;;;;;;;;;;4203934;28;860;-59
2022/03/12 16:31:39;;;;;;;;;;;;;;;;;;4200994;28;962;-58
2022/03/12 16:34:03;;;;;;;;;;;;;;;;;;4216310;28;1985;-58
2022/03/12 16:36:24;;;;;;;;;;;;;;;;;;4202588;28;939;-59